sensor_id;sensor_type;location;lat;lon;timestamp;P1;durP1;ratioP1;P2;durP2;ratioP2
253;SDS011;590;48.772;8.846;2023-05-10T00:00:16;0.40;;;0.20;;
253;SDS011;590;48.772;8.846;2023-05-10T00:02:44;2.10;;;0.67;;
253;SDS011;590;48.772;8.846;2023-05-10T00:05:13;0.50;;;0.30;;
253;SDS011;590;48.772;8.846;2023-05-10T00:07:41;0.40;;;0.40;;
253;SDS011;590;48.772;8.846;2023-05-10T00:10:11;0.87;;;0.30;;
253;SDS011;590;48.772;8.846;2023-05-10T00:12:39;0.40;;;0.30;;
253;SDS011;590;48.772;8.846;2023-05-10T00:15:09;0.97;;;0.63;;
253;SDS011;590;48.772;8.846;2023-05-10T00:17:37;0.50;;;0.30;;
253;SDS011;590;48.772;8.846;2023-05-10T00:20:05;1.13;;;0.30;;
253;SDS011;590;48.772;8.846;2023-05-10T00:22:34;0.83;;;0.30;;
253;SDS011;590;48.772;8.846;2023-05-10T00:25:02;0.40;;;0.23;;
253;SDS011;590;48.772;8.846;2023-05-10T00:27:30;1.27;;;0.30;;
253;SDS011;590;48.772;8.846;2023-05-10T00:29:58;0.53;;;0.40;;
253;SDS011;590;48.772;8.846;2023-05-10T00:32:28;0.50;;;0.30;;
253;SDS011;590;48.772;8.846;2023-05-10T00:34:56;0.40;;;0.33;;
253;SDS011;590;48.772;8.846;2023-05-10T00:37:24;0.40;;;0.30;;
253;SDS011;590;48.772;8.846;2023-05-10T00:39:52;0.70;;;0.30;;
253;SDS011;590;48.772;8.846;2023-05-10T00:42:20;0.40;;;0.30;;
253;SDS011;590;48.772;8.846;2023-05-10T00:44:48;0.60;;;0.40;;
253;SDS011;590;48.772;8.846;2023-05-10T00:47:16;0.40;;;0.30;;
253;SDS011;590;48.772;8.846;2023-05-10T00:49:46;0.40;;;0.30;;
253;SDS011;590;48.772;8.846;2023-05-10T00:52:14;0.50;;;0.40;;
253;SDS011;590;48.772;8.846;2023-05-10T00:54:42;0.40;;;0.30;;
253;SDS011;590;48.772;8.846;2023-05-10T00:57:10;0.40;;;0.30;;
253;SDS011;590;48.772;8.846;2023-05-10T00:59:38;0.50;;;0.40;;
253;SDS011;590;48.772;8.846;2023-05-10T01:02:06;0.50;;;0.30;;
253;SDS011;590;48.772;8.846;2023-05-10T01:04:34;1.33;;;0.40;;
253;SDS011;590;48.772;8.846;2023-05-10T01:07:04;0.67;;;0.40;;
253;SDS011;590;48.772;8.846;2023-05-10T01:09:32;0.90;;;0.40;;
253;SDS011;590;48.772;8.846;2023-05-10T01:12:01;0.50;;;0.30;;
253;SDS011;590;48.772;8.846;2023-05-10T01:14:30;1.23;;;0.60;;
253;SDS011;590;48.772;8.846;2023-05-10T01:16:58;0.80;;;0.30;;
253;SDS011;590;48.772;8.846;2023-05-10T01:19:28;0.93;;;0.50;;
253;SDS011;590;48.772;8.846;2023-05-10T01:22:02;0.60;;;0.30;;
253;SDS011;590;48.772;8.846;2023-05-10T01:24:55;0.60;;;0.33;;
253;SDS011;590;48.772;8.846;2023-05-10T01:30:43;0.50;;;0.30;;
253;SDS011;590;48.772;8.846;2023-05-10T01:33:34;2.73;;;0.40;;
253;SDS011;590;48.772;8.846;2023-05-10T01:36:08;0.40;;;0.30;;
253;SDS011;590;48.772;8.846;2023-05-10T01:38:43;0.50;;;0.40;;
253;SDS011;590;48.772;8.846;2023-05-10T01:41:17;0.80;;;0.47;;
253;SDS011;590;48.772;8.846;2023-05-10T01:43:53;0.70;;;0.40;;
253;SDS011;590;48.772;8.846;2023-05-10T01:46:27;0.50;;;0.40;;
253;SDS011;590;48.772;8.846;2023-05-10T01:49:02;0.50;;;0.40;;
253;SDS011;590;48.772;8.846;2023-05-10T01:51:36;0.73;;;0.50;;
253;SDS011;590;48.772;8.846;2023-05-10T01:54:13;0.67;;;0.67;;
253;SDS011;590;48.772;8.846;2023-05-10T01:56:42;0.67;;;0.37;;
253;SDS011;590;48.772;8.846;2023-05-10T01:59:12;0.80;;;0.70;;
253;SDS011;590;48.772;8.846;2023-05-10T02:01:44;0.53;;;0.53;;
253;SDS011;590;48.772;8.846;2023-05-10T02:04:15;1.07;;;0.40;;
253;SDS011;590;48.772;8.846;2023-05-10T02:06:44;1.27;;;0.57;;
253;SDS011;590;48.772;8.846;2023-05-10T02:09:14;0.73;;;0.63;;
253;SDS011;590;48.772;8.846;2023-05-10T02:11:45;0.50;;;0.50;;
253;SDS011;590;48.772;8.846;2023-05-10T02:14:15;0.83;;;0.60;;
253;SDS011;590;48.772;8.846;2023-05-10T02:16:43;0.90;;;0.80;;
253;SDS011;590;48.772;8.846;2023-05-10T02:19:14;1.00;;;0.70;;
253;SDS011;590;48.772;8.846;2023-05-10T02:21:44;0.50;;;0.50;;
253;SDS011;590;48.772;8.846;2023-05-10T02:24:13;0.70;;;0.60;;
253;SDS011;590;48.772;8.846;2023-05-10T02:26:43;0.80;;;0.80;;
253;SDS011;590;48.772;8.846;2023-05-10T02:29:12;1.03;;;0.77;;
253;SDS011;590;48.772;8.846;2023-05-10T02:31:42;1.57;;;0.93;;
253;SDS011;590;48.772;8.846;2023-05-10T02:34:11;1.20;;;1.10;;
253;SDS011;590;48.772;8.846;2023-05-10T02:36:42;0.90;;;0.80;;
253;SDS011;590;48.772;8.846;2023-05-10T02:39:10;1.10;;;1.00;;
253;SDS011;590;48.772;8.846;2023-05-10T02:41:40;1.17;;;1.10;;
253;SDS011;590;48.772;8.846;2023-05-10T02:44:09;2.50;;;1.03;;
253;SDS011;590;48.772;8.846;2023-05-10T02:46:38;1.03;;;0.90;;
253;SDS011;590;48.772;8.846;2023-05-10T02:49:06;1.37;;;1.10;;
253;SDS011;590;48.772;8.846;2023-05-10T02:51:35;1.53;;;1.20;;
253;SDS011;590;48.772;8.846;2023-05-10T02:54:10;2.27;;;1.40;;
253;SDS011;590;48.772;8.846;2023-05-10T02:56:43;1.50;;;1.27;;
253;SDS011;590;48.772;8.846;2023-05-10T02:59:17;1.40;;;1.23;;
253;SDS011;590;48.772;8.846;2023-05-10T03:01:46;1.60;;;1.50;;
253;SDS011;590;48.772;8.846;2023-05-10T03:04:14;1.63;;;1.50;;
253;SDS011;590;48.772;8.846;2023-05-10T03:06:42;1.30;;;1.20;;
253;SDS011;590;48.772;8.846;2023-05-10T03:09:12;1.27;;;1.20;;
253;SDS011;590;48.772;8.846;2023-05-10T03:11:45;1.60;;;1.50;;
253;SDS011;590;48.772;8.846;2023-05-10T03:14:25;1.20;;;1.10;;
253;SDS011;590;48.772;8.846;2023-05-10T03:17:04;1.13;;;1.03;;
253;SDS011;590;48.772;8.846;2023-05-10T03:19:38;1.70;;;1.53;;
253;SDS011;590;48.772;8.846;2023-05-10T03:22:13;2.17;;;1.47;;
253;SDS011;590;48.772;8.846;2023-05-10T03:24:50;1.97;;;1.87;;
253;SDS011;590;48.772;8.846;2023-05-10T03:27:21;1.10;;;1.00;;
253;SDS011;590;48.772;8.846;2023-05-10T03:29:51;1.73;;;1.50;;
253;SDS011;590;48.772;8.846;2023-05-10T03:32:20;1.30;;;1.20;;
253;SDS011;590;48.772;8.846;2023-05-10T03:34:49;1.77;;;1.53;;
253;SDS011;590;48.772;8.846;2023-05-10T03:37:17;1.40;;;1.30;;
253;SDS011;590;48.772;8.846;2023-05-10T03:39:45;1.80;;;1.17;;
253;SDS011;590;48.772;8.846;2023-05-10T03:42:14;1.40;;;1.30;;
253;SDS011;590;48.772;8.846;2023-05-10T03:44:44;1.20;;;1.10;;
253;SDS011;590;48.772;8.846;2023-05-10T03:47:12;1.13;;;1.10;;
253;SDS011;590;48.772;8.846;2023-05-10T03:49:40;1.20;;;1.10;;
253;SDS011;590;48.772;8.846;2023-05-10T03:52:08;1.30;;;1.20;;
253;SDS011;590;48.772;8.846;2023-05-10T03:54:36;1.10;;;1.00;;
253;SDS011;590;48.772;8.846;2023-05-10T03:57:04;1.53;;;1.50;;
253;SDS011;590;48.772;8.846;2023-05-10T03:59:33;2.20;;;1.47;;
253;SDS011;590;48.772;8.846;2023-05-10T04:02:01;1.43;;;1.40;;
253;SDS011;590;48.772;8.846;2023-05-10T04:04:29;2.60;;;1.67;;
253;SDS011;590;48.772;8.846;2023-05-10T04:06:57;2.20;;;1.60;;
253;SDS011;590;48.772;8.846;2023-05-10T04:09:25;1.10;;;1.00;;
253;SDS011;590;48.772;8.846;2023-05-10T04:11:53;1.40;;;1.30;;
253;SDS011;590;48.772;8.846;2023-05-10T04:14:21;1.17;;;1.07;;
253;SDS011;590;48.772;8.846;2023-05-10T04:16:50;1.70;;;1.40;;
253;SDS011;590;48.772;8.846;2023-05-10T04:19:18;1.17;;;1.10;;
253;SDS011;590;48.772;8.846;2023-05-10T04:21:46;2.50;;;1.00;;
253;SDS011;590;48.772;8.846;2023-05-10T04:24:14;1.67;;;1.33;;
253;SDS011;590;48.772;8.846;2023-05-10T04:26:42;1.67;;;1.00;;
253;SDS011;590;48.772;8.846;2023-05-10T04:29:11;1.10;;;1.00;;
253;SDS011;590;48.772;8.846;2023-05-10T04:31:39;1.23;;;1.13;;
253;SDS011;590;48.772;8.846;2023-05-10T04:34:09;1.20;;;1.10;;
253;SDS011;590;48.772;8.846;2023-05-10T04:36:37;2.50;;;1.27;;
253;SDS011;590;48.772;8.846;2023-05-10T04:39:05;1.20;;;1.10;;
253;SDS011;590;48.772;8.846;2023-05-10T04:41:33;1.50;;;1.30;;
253;SDS011;590;48.772;8.846;2023-05-10T04:44:01;1.57;;;1.20;;
253;SDS011;590;48.772;8.846;2023-05-10T04:46:29;1.20;;;1.10;;
253;SDS011;590;48.772;8.846;2023-05-10T04:48:57;1.30;;;1.20;;
253;SDS011;590;48.772;8.846;2023-05-10T04:51:26;3.93;;;1.47;;
253;SDS011;590;48.772;8.846;2023-05-10T04:53:54;1.40;;;1.30;;
253;SDS011;590;48.772;8.846;2023-05-10T04:56:31;1.40;;;1.30;;
253;SDS011;590;48.772;8.846;2023-05-10T04:58:59;1.20;;;1.10;;
253;SDS011;590;48.772;8.846;2023-05-10T05:01:27;1.87;;;1.30;;
253;SDS011;590;48.772;8.846;2023-05-10T05:03:55;1.40;;;0.97;;
253;SDS011;590;48.772;8.846;2023-05-10T05:06:24;1.80;;;0.90;;
253;SDS011;590;48.772;8.846;2023-05-10T05:08:55;1.90;;;1.10;;
253;SDS011;590;48.772;8.846;2023-05-10T05:11:22;1.40;;;1.30;;
253;SDS011;590;48.772;8.846;2023-05-10T05:13:51;2.83;;;1.40;;
253;SDS011;590;48.772;8.846;2023-05-10T05:16:19;1.63;;;1.33;;
253;SDS011;590;48.772;8.846;2023-05-10T05:18:48;1.70;;;1.37;;
253;SDS011;590;48.772;8.846;2023-05-10T05:21:16;2.10;;;1.67;;
253;SDS011;590;48.772;8.846;2023-05-10T05:23:45;2.00;;;1.50;;
253;SDS011;590;48.772;8.846;2023-05-10T05:26:15;1.60;;;1.43;;
253;SDS011;590;48.772;8.846;2023-05-10T05:28:43;2.23;;;1.60;;
253;SDS011;590;48.772;8.846;2023-05-10T05:31:11;1.20;;;1.10;;
253;SDS011;590;48.772;8.846;2023-05-10T05:33:40;1.30;;;1.20;;
253;SDS011;590;48.772;8.846;2023-05-10T05:36:08;1.40;;;1.30;;
253;SDS011;590;48.772;8.846;2023-05-10T05:38:36;1.23;;;0.90;;
253;SDS011;590;48.772;8.846;2023-05-10T05:41:04;1.90;;;1.37;;
253;SDS011;590;48.772;8.846;2023-05-10T05:43:33;1.63;;;1.53;;
253;SDS011;590;48.772;8.846;2023-05-10T05:46:03;1.37;;;1.30;;
253;SDS011;590;48.772;8.846;2023-05-10T05:48:32;2.43;;;2.23;;
253;SDS011;590;48.772;8.846;2023-05-10T05:51:00;1.87;;;1.77;;
253;SDS011;590;48.772;8.846;2023-05-10T05:53:28;2.33;;;1.60;;
253;SDS011;590;48.772;8.846;2023-05-10T05:55:57;2.50;;;1.30;;
253;SDS011;590;48.772;8.846;2023-05-10T05:58:26;2.60;;;1.80;;
253;SDS011;590;48.772;8.846;2023-05-10T06:00:55;1.83;;;1.50;;
253;SDS011;590;48.772;8.846;2023-05-10T06:03:23;1.53;;;1.23;;
253;SDS011;590;48.772;8.846;2023-05-10T06:05:52;1.30;;;1.20;;
253;SDS011;590;48.772;8.846;2023-05-10T06:08:19;3.80;;;1.50;;
253;SDS011;590;48.772;8.846;2023-05-10T06:10:48;1.67;;;1.57;;
253;SDS011;590;48.772;8.846;2023-05-10T06:13:16;1.43;;;1.40;;
253;SDS011;590;48.772;8.846;2023-05-10T06:15:44;1.37;;;1.27;;
253;SDS011;590;48.772;8.846;2023-05-10T06:18:13;1.67;;;1.57;;
253;SDS011;590;48.772;8.846;2023-05-10T06:20:41;1.37;;;1.27;;
253;SDS011;590;48.772;8.846;2023-05-10T06:23:10;1.57;;;1.47;;
253;SDS011;590;48.772;8.846;2023-05-10T06:25:38;1.30;;;1.20;;
253;SDS011;590;48.772;8.846;2023-05-10T06:28:06;2.30;;;1.73;;
253;SDS011;590;48.772;8.846;2023-05-10T06:30:35;1.50;;;1.40;;
253;SDS011;590;48.772;8.846;2023-05-10T06:33:03;1.60;;;1.13;;
253;SDS011;590;48.772;8.846;2023-05-10T06:35:33;1.20;;;1.10;;
253;SDS011;590;48.772;8.846;2023-05-10T06:38:01;2.00;;;1.43;;
253;SDS011;590;48.772;8.846;2023-05-10T06:40:29;1.73;;;1.60;;
253;SDS011;590;48.772;8.846;2023-05-10T06:42:57;1.43;;;1.43;;
253;SDS011;590;48.772;8.846;2023-05-10T06:45:25;1.47;;;1.40;;
253;SDS011;590;48.772;8.846;2023-05-10T06:47:53;1.10;;;1.00;;
253;SDS011;590;48.772;8.846;2023-05-10T06:50:22;1.97;;;1.20;;
253;SDS011;590;48.772;8.846;2023-05-10T06:52:51;1.47;;;1.07;;
253;SDS011;590;48.772;8.846;2023-05-10T06:55:19;1.17;;;1.07;;
253;SDS011;590;48.772;8.846;2023-05-10T06:57:47;2.63;;;1.30;;
253;SDS011;590;48.772;8.846;2023-05-10T07:00:15;1.40;;;1.30;;
253;SDS011;590;48.772;8.846;2023-05-10T07:02:45;1.50;;;1.13;;
253;SDS011;590;48.772;8.846;2023-05-10T07:05:13;1.03;;;1.00;;
253;SDS011;590;48.772;8.846;2023-05-10T07:07:41;3.57;;;1.30;;
253;SDS011;590;48.772;8.846;2023-05-10T07:10:11;1.13;;;1.03;;
253;SDS011;590;48.772;8.846;2023-05-10T07:12:39;1.00;;;0.90;;
253;SDS011;590;48.772;8.846;2023-05-10T07:15:08;0.80;;;0.80;;
253;SDS011;590;48.772;8.846;2023-05-10T07:17:36;1.10;;;1.00;;
253;SDS011;590;48.772;8.846;2023-05-10T07:20:05;0.80;;;0.70;;
253;SDS011;590;48.772;8.846;2023-05-10T07:22:34;0.90;;;0.70;;
253;SDS011;590;48.772;8.846;2023-05-10T07:25:02;1.23;;;0.67;;
253;SDS011;590;48.772;8.846;2023-05-10T07:27:32;1.07;;;0.83;;
253;SDS011;590;48.772;8.846;2023-05-10T07:30:00;0.80;;;0.70;;
253;SDS011;590;48.772;8.846;2023-05-10T07:32:28;0.70;;;0.50;;
253;SDS011;590;48.772;8.846;2023-05-10T07:34:57;0.50;;;0.50;;
253;SDS011;590;48.772;8.846;2023-05-10T07:37:25;2.10;;;0.60;;
253;SDS011;590;48.772;8.846;2023-05-10T07:39:53;0.90;;;0.50;;
253;SDS011;590;48.772;8.846;2023-05-10T07:42:21;0.60;;;0.50;;
253;SDS011;590;48.772;8.846;2023-05-10T07:44:50;0.80;;;0.50;;
253;SDS011;590;48.772;8.846;2023-05-10T07:47:18;0.80;;;0.63;;
253;SDS011;590;48.772;8.846;2023-05-10T07:49:46;3.40;;;1.20;;
253;SDS011;590;48.772;8.846;2023-05-10T07:52:14;0.97;;;0.70;;
253;SDS011;590;48.772;8.846;2023-05-10T07:54:42;1.47;;;0.60;;
253;SDS011;590;48.772;8.846;2023-05-10T07:57:10;1.20;;;0.90;;
253;SDS011;590;48.772;8.846;2023-05-10T07:59:40;0.87;;;0.77;;
253;SDS011;590;48.772;8.846;2023-05-10T08:02:10;2.80;;;2.60;;
253;SDS011;590;48.772;8.846;2023-05-10T08:04:38;1.63;;;1.53;;
253;SDS011;590;48.772;8.846;2023-05-10T08:07:07;1.57;;;1.50;;
253;SDS011;590;48.772;8.846;2023-05-10T08:09:35;0.80;;;0.70;;
253;SDS011;590;48.772;8.846;2023-05-10T08:12:03;0.97;;;0.87;;
253;SDS011;590;48.772;8.846;2023-05-10T08:14:49;0.50;;;0.47;;
253;SDS011;590;48.772;8.846;2023-05-10T08:17:18;0.80;;;0.40;;
253;SDS011;590;48.772;8.846;2023-05-10T08:19:48;0.60;;;0.47;;
253;SDS011;590;48.772;8.846;2023-05-10T08:22:16;0.50;;;0.50;;
253;SDS011;590;48.772;8.846;2023-05-10T08:24:44;0.73;;;0.67;;
253;SDS011;590;48.772;8.846;2023-05-10T08:27:12;0.63;;;0.47;;
253;SDS011;590;48.772;8.846;2023-05-10T08:29:40;1.20;;;1.03;;
253;SDS011;590;48.772;8.846;2023-05-10T08:32:15;1.37;;;0.50;;
253;SDS011;590;48.772;8.846;2023-05-10T08:34:45;0.50;;;0.50;;
253;SDS011;590;48.772;8.846;2023-05-10T08:37:13;0.63;;;0.60;;
253;SDS011;590;48.772;8.846;2023-05-10T08:39:41;1.07;;;0.60;;
253;SDS011;590;48.772;8.846;2023-05-10T08:42:09;0.63;;;0.60;;
253;SDS011;590;48.772;8.846;2023-05-10T08:44:37;0.73;;;0.57;;
253;SDS011;590;48.772;8.846;2023-05-10T08:47:06;0.60;;;0.60;;
253;SDS011;590;48.772;8.846;2023-05-10T08:49:35;0.50;;;0.40;;
253;SDS011;590;48.772;8.846;2023-05-10T08:52:06;0.80;;;0.40;;
253;SDS011;590;48.772;8.846;2023-05-10T08:54:35;0.60;;;0.50;;
253;SDS011;590;48.772;8.846;2023-05-10T08:57:04;0.50;;;0.40;;
253;SDS011;590;48.772;8.846;2023-05-10T08:59:32;0.97;;;0.60;;
253;SDS011;590;48.772;8.846;2023-05-10T09:02:00;1.43;;;0.90;;
253;SDS011;590;48.772;8.846;2023-05-10T09:04:29;1.50;;;0.60;;
253;SDS011;590;48.772;8.846;2023-05-10T09:06:58;0.80;;;0.40;;
253;SDS011;590;48.772;8.846;2023-05-10T09:09:28;0.80;;;0.57;;
253;SDS011;590;48.772;8.846;2023-05-10T09:11:57;0.97;;;0.87;;
253;SDS011;590;48.772;8.846;2023-05-10T09:14:25;2.03;;;0.63;;
253;SDS011;590;48.772;8.846;2023-05-10T09:16:53;1.20;;;0.43;;
253;SDS011;590;48.772;8.846;2023-05-10T09:19:22;0.70;;;0.63;;
253;SDS011;590;48.772;8.846;2023-05-10T09:21:50;0.63;;;0.50;;
253;SDS011;590;48.772;8.846;2023-05-10T09:24:18;1.00;;;0.40;;
253;SDS011;590;48.772;8.846;2023-05-10T09:26:47;0.60;;;0.50;;
253;SDS011;590;48.772;8.846;2023-05-10T09:29:16;2.83;;;1.07;;
253;SDS011;590;48.772;8.846;2023-05-10T09:31:44;0.80;;;0.40;;
253;SDS011;590;48.772;8.846;2023-05-10T09:34:17;0.63;;;0.53;;
253;SDS011;590;48.772;8.846;2023-05-10T09:36:50;1.33;;;0.50;;
253;SDS011;590;48.772;8.846;2023-05-10T09:39:20;1.23;;;0.50;;
253;SDS011;590;48.772;8.846;2023-05-10T09:41:49;1.00;;;0.53;;
253;SDS011;590;48.772;8.846;2023-05-10T09:44:19;0.77;;;0.67;;
253;SDS011;590;48.772;8.846;2023-05-10T09:46:50;0.63;;;0.57;;
253;SDS011;590;48.772;8.846;2023-05-10T09:49:19;0.70;;;0.70;;
253;SDS011;590;48.772;8.846;2023-05-10T09:51:50;0.80;;;0.50;;
253;SDS011;590;48.772;8.846;2023-05-10T09:54:29;0.70;;;0.60;;
253;SDS011;590;48.772;8.846;2023-05-10T09:56:59;1.03;;;0.40;;
253;SDS011;590;48.772;8.846;2023-05-10T09:59:28;0.90;;;0.60;;
253;SDS011;590;48.772;8.846;2023-05-10T10:01:57;0.50;;;0.50;;
253;SDS011;590;48.772;8.846;2023-05-10T10:04:26;0.70;;;0.50;;
253;SDS011;590;48.772;8.846;2023-05-10T10:06:59;0.60;;;0.60;;
253;SDS011;590;48.772;8.846;2023-05-10T10:09:31;0.60;;;0.60;;
253;SDS011;590;48.772;8.846;2023-05-10T10:12:01;1.63;;;0.70;;
253;SDS011;590;48.772;8.846;2023-05-10T10:14:30;1.13;;;0.70;;
253;SDS011;590;48.772;8.846;2023-05-10T10:16:58;1.13;;;0.60;;
253;SDS011;590;48.772;8.846;2023-05-10T10:19:32;0.50;;;0.40;;
253;SDS011;590;48.772;8.846;2023-05-10T10:22:02;0.80;;;0.47;;
253;SDS011;590;48.772;8.846;2023-05-10T10:24:30;0.80;;;0.50;;
253;SDS011;590;48.772;8.846;2023-05-10T10:27:01;0.70;;;0.53;;
253;SDS011;590;48.772;8.846;2023-05-10T10:29:39;2.30;;;0.90;;
253;SDS011;590;48.772;8.846;2023-05-10T10:32:19;0.50;;;0.50;;
253;SDS011;590;48.772;8.846;2023-05-10T10:34:53;2.10;;;0.60;;
253;SDS011;590;48.772;8.846;2023-05-10T10:37:22;1.07;;;0.50;;
253;SDS011;590;48.772;8.846;2023-05-10T10:39:51;1.27;;;0.80;;
253;SDS011;590;48.772;8.846;2023-05-10T10:45:13;1.00;;;0.70;;
253;SDS011;590;48.772;8.846;2023-05-10T10:47:41;0.60;;;0.50;;
253;SDS011;590;48.772;8.846;2023-05-10T10:50:10;1.10;;;0.50;;
253;SDS011;590;48.772;8.846;2023-05-10T10:52:39;0.63;;;0.57;;
253;SDS011;590;48.772;8.846;2023-05-10T10:55:08;2.10;;;0.47;;
253;SDS011;590;48.772;8.846;2023-05-10T10:57:45;2.20;;;0.50;;
253;SDS011;590;48.772;8.846;2023-05-10T11:00:18;1.13;;;0.50;;
253;SDS011;590;48.772;8.846;2023-05-10T11:02:51;2.27;;;0.70;;
253;SDS011;590;48.772;8.846;2023-05-10T11:08:08;1.00;;;0.90;;
253;SDS011;590;48.772;8.846;2023-05-10T11:10:52;0.80;;;0.73;;
253;SDS011;590;48.772;8.846;2023-05-10T11:13:32;2.43;;;2.23;;
253;SDS011;590;48.772;8.846;2023-05-10T11:16:11;1.20;;;0.80;;
253;SDS011;590;48.772;8.846;2023-05-10T11:18:51;1.07;;;0.80;;
253;SDS011;590;48.772;8.846;2023-05-10T11:21:30;0.60;;;0.60;;
253;SDS011;590;48.772;8.846;2023-05-10T11:23:59;0.60;;;0.47;;
253;SDS011;590;48.772;8.846;2023-05-10T11:26:33;0.83;;;0.77;;
253;SDS011;590;48.772;8.846;2023-05-10T11:29:03;0.90;;;0.60;;
253;SDS011;590;48.772;8.846;2023-05-10T11:31:31;0.70;;;0.70;;
253;SDS011;590;48.772;8.846;2023-05-10T11:34:00;0.70;;;0.60;;
253;SDS011;590;48.772;8.846;2023-05-10T11:36:31;1.80;;;0.93;;
253;SDS011;590;48.772;8.846;2023-05-10T11:39:00;1.10;;;1.00;;
253;SDS011;590;48.772;8.846;2023-05-10T11:41:29;1.50;;;1.10;;
253;SDS011;590;48.772;8.846;2023-05-10T11:43:58;2.30;;;0.93;;
253;SDS011;590;48.772;8.846;2023-05-10T11:46:28;0.90;;;0.80;;
253;SDS011;590;48.772;8.846;2023-05-10T11:48:57;1.43;;;1.27;;
253;SDS011;590;48.772;8.846;2023-05-10T11:51:28;1.03;;;0.90;;
253;SDS011;590;48.772;8.846;2023-05-10T11:53:56;1.07;;;0.60;;
253;SDS011;590;48.772;8.846;2023-05-10T11:56:24;1.03;;;0.80;;
253;SDS011;590;48.772;8.846;2023-05-10T11:58:53;1.93;;;0.97;;
253;SDS011;590;48.772;8.846;2023-05-10T12:01:23;1.47;;;1.20;;
253;SDS011;590;48.772;8.846;2023-05-10T12:03:53;1.23;;;0.87;;
253;SDS011;590;48.772;8.846;2023-05-10T12:06:26;2.67;;;0.90;;
253;SDS011;590;48.772;8.846;2023-05-10T12:08:55;2.03;;;1.10;;
253;SDS011;590;48.772;8.846;2023-05-10T12:11:24;1.00;;;0.87;;
253;SDS011;590;48.772;8.846;2023-05-10T12:13:53;2.20;;;1.07;;
253;SDS011;590;48.772;8.846;2023-05-10T12:16:23;1.07;;;0.77;;
253;SDS011;590;48.772;8.846;2023-05-10T12:18:55;0.97;;;0.90;;
253;SDS011;590;48.772;8.846;2023-05-10T12:21:24;1.70;;;0.77;;
253;SDS011;590;48.772;8.846;2023-05-10T12:23:53;1.20;;;0.60;;
253;SDS011;590;48.772;8.846;2023-05-10T12:26:22;2.30;;;0.80;;
253;SDS011;590;48.772;8.846;2023-05-10T12:28:52;1.67;;;0.90;;
253;SDS011;590;48.772;8.846;2023-05-10T12:31:20;2.60;;;1.07;;
253;SDS011;590;48.772;8.846;2023-05-10T12:33:49;1.73;;;1.30;;
253;SDS011;590;48.772;8.846;2023-05-10T12:36:23;0.80;;;0.70;;
253;SDS011;590;48.772;8.846;2023-05-10T12:39:00;2.10;;;1.13;;
253;SDS011;590;48.772;8.846;2023-05-10T12:41:31;0.80;;;0.50;;
253;SDS011;590;48.772;8.846;2023-05-10T12:43:59;1.23;;;0.77;;
253;SDS011;590;48.772;8.846;2023-05-10T12:46:27;1.47;;;0.80;;
253;SDS011;590;48.772;8.846;2023-05-10T12:48:55;1.13;;;1.10;;
253;SDS011;590;48.772;8.846;2023-05-10T12:51:35;1.77;;;0.77;;
253;SDS011;590;48.772;8.846;2023-05-10T12:54:03;1.37;;;0.93;;
253;SDS011;590;48.772;8.846;2023-05-10T12:56:31;0.93;;;0.80;;
253;SDS011;590;48.772;8.846;2023-05-10T12:58:59;1.17;;;0.87;;
253;SDS011;590;48.772;8.846;2023-05-10T13:01:27;1.73;;;1.10;;
253;SDS011;590;48.772;8.846;2023-05-10T13:03:56;0.90;;;0.80;;
253;SDS011;590;48.772;8.846;2023-05-10T13:06:24;0.70;;;0.60;;
253;SDS011;590;48.772;8.846;2023-05-10T13:08:53;1.60;;;0.83;;
253;SDS011;590;48.772;8.846;2023-05-10T13:11:21;0.80;;;0.80;;
253;SDS011;590;48.772;8.846;2023-05-10T13:13:49;2.27;;;1.03;;
253;SDS011;590;48.772;8.846;2023-05-10T13:16:18;0.90;;;0.80;;
253;SDS011;590;48.772;8.846;2023-05-10T13:18:46;1.53;;;0.83;;
253;SDS011;590;48.772;8.846;2023-05-10T13:21:14;0.80;;;0.80;;
253;SDS011;590;48.772;8.846;2023-05-10T13:23:42;1.30;;;0.90;;
253;SDS011;590;48.772;8.846;2023-05-10T13:26:12;1.07;;;0.70;;
253;SDS011;590;48.772;8.846;2023-05-10T13:28:40;1.10;;;0.90;;
253;SDS011;590;48.772;8.846;2023-05-10T13:31:08;1.13;;;0.60;;
253;SDS011;590;48.772;8.846;2023-05-10T13:33:36;0.70;;;0.70;;
253;SDS011;590;48.772;8.846;2023-05-10T13:36:04;4.03;;;0.80;;
253;SDS011;590;48.772;8.846;2023-05-10T13:38:33;2.67;;;0.70;;
253;SDS011;590;48.772;8.846;2023-05-10T13:41:01;1.60;;;0.67;;
253;SDS011;590;48.772;8.846;2023-05-10T13:43:31;1.07;;;0.70;;
253;SDS011;590;48.772;8.846;2023-05-10T13:45:59;0.80;;;0.70;;
253;SDS011;590;48.772;8.846;2023-05-10T13:48:27;0.57;;;0.43;;
253;SDS011;590;48.772;8.846;2023-05-10T13:50:57;0.70;;;0.70;;
253;SDS011;590;48.772;8.846;2023-05-10T13:53:25;1.17;;;0.80;;
253;SDS011;590;48.772;8.846;2023-05-10T13:55:53;0.70;;;0.70;;
253;SDS011;590;48.772;8.846;2023-05-10T13:58:21;0.60;;;0.50;;
253;SDS011;590;48.772;8.846;2023-05-10T14:00:51;1.60;;;0.77;;
253;SDS011;590;48.772;8.846;2023-05-10T14:03:19;1.23;;;0.63;;
253;SDS011;590;48.772;8.846;2023-05-10T14:05:47;1.43;;;1.10;;
253;SDS011;590;48.772;8.846;2023-05-10T14:08:15;1.43;;;0.63;;
253;SDS011;590;48.772;8.846;2023-05-10T14:10:43;1.17;;;0.70;;
253;SDS011;590;48.772;8.846;2023-05-10T14:13:11;1.00;;;0.77;;
253;SDS011;590;48.772;8.846;2023-05-10T14:15:39;2.60;;;1.03;;
253;SDS011;590;48.772;8.846;2023-05-10T14:18:09;1.20;;;0.80;;
253;SDS011;590;48.772;8.846;2023-05-10T14:20:37;1.20;;;0.90;;
253;SDS011;590;48.772;8.846;2023-05-10T14:23:06;1.63;;;0.70;;
253;SDS011;590;48.772;8.846;2023-05-10T14:25:37;2.50;;;0.60;;
253;SDS011;590;48.772;8.846;2023-05-10T14:28:05;5.00;;;0.77;;
253;SDS011;590;48.772;8.846;2023-05-10T14:30:33;1.03;;;0.63;;
253;SDS011;590;48.772;8.846;2023-05-10T14:33:01;2.73;;;0.60;;
253;SDS011;590;48.772;8.846;2023-05-10T14:35:31;0.60;;;0.43;;
253;SDS011;590;48.772;8.846;2023-05-10T14:37:59;1.20;;;0.80;;
253;SDS011;590;48.772;8.846;2023-05-10T14:40:27;0.80;;;0.57;;
253;SDS011;590;48.772;8.846;2023-05-10T14:42:55;0.70;;;0.60;;
253;SDS011;590;48.772;8.846;2023-05-10T14:45:23;0.80;;;0.63;;
253;SDS011;590;48.772;8.846;2023-05-10T14:47:51;0.90;;;0.53;;
253;SDS011;590;48.772;8.846;2023-05-10T14:50:19;0.50;;;0.40;;
253;SDS011;590;48.772;8.846;2023-05-10T14:53:03;2.30;;;0.67;;
253;SDS011;590;48.772;8.846;2023-05-10T14:55:31;0.80;;;0.60;;
253;SDS011;590;48.772;8.846;2023-05-10T14:58:01;0.90;;;0.60;;
253;SDS011;590;48.772;8.846;2023-05-10T15:00:29;1.30;;;0.57;;
253;SDS011;590;48.772;8.846;2023-05-10T15:02:58;0.50;;;0.47;;
253;SDS011;590;48.772;8.846;2023-05-10T15:05:27;0.70;;;0.60;;
253;SDS011;590;48.772;8.846;2023-05-10T15:07:55;0.70;;;0.53;;
253;SDS011;590;48.772;8.846;2023-05-10T15:10:24;0.80;;;0.70;;
253;SDS011;590;48.772;8.846;2023-05-10T15:12:52;1.07;;;0.67;;
253;SDS011;590;48.772;8.846;2023-05-10T15:15:20;1.00;;;0.50;;
253;SDS011;590;48.772;8.846;2023-05-10T15:17:48;0.53;;;0.50;;
253;SDS011;590;48.772;8.846;2023-05-10T15:20:17;0.70;;;0.60;;
253;SDS011;590;48.772;8.846;2023-05-10T15:22:45;0.50;;;0.40;;
253;SDS011;590;48.772;8.846;2023-05-10T15:25:13;1.10;;;0.80;;
253;SDS011;590;48.772;8.846;2023-05-10T15:27:43;1.13;;;0.57;;
253;SDS011;590;48.772;8.846;2023-05-10T15:30:12;1.10;;;0.63;;
253;SDS011;590;48.772;8.846;2023-05-10T15:32:40;1.00;;;0.60;;
253;SDS011;590;48.772;8.846;2023-05-10T15:35:09;2.00;;;0.70;;
253;SDS011;590;48.772;8.846;2023-05-10T15:37:37;2.10;;;0.53;;
253;SDS011;590;48.772;8.846;2023-05-10T15:40:06;0.73;;;0.40;;
253;SDS011;590;48.772;8.846;2023-05-10T15:42:34;0.60;;;0.50;;
253;SDS011;590;48.772;8.846;2023-05-10T15:45:04;1.57;;;0.70;;
253;SDS011;590;48.772;8.846;2023-05-10T15:47:32;0.90;;;0.70;;
253;SDS011;590;48.772;8.846;2023-05-10T15:50:00;0.60;;;0.50;;
253;SDS011;590;48.772;8.846;2023-05-10T15:52:29;0.70;;;0.50;;
253;SDS011;590;48.772;8.846;2023-05-10T15:54:57;0.80;;;0.60;;
253;SDS011;590;48.772;8.846;2023-05-10T15:57:25;2.10;;;0.50;;
253;SDS011;590;48.772;8.846;2023-05-10T15:59:53;2.20;;;0.60;;
253;SDS011;590;48.772;8.846;2023-05-10T16:02:22;1.37;;;0.67;;
253;SDS011;590;48.772;8.846;2023-05-10T16:04:51;0.73;;;0.60;;
253;SDS011;590;48.772;8.846;2023-05-10T16:07:19;1.23;;;0.60;;